Armstrong, Iowa
Current Conditions -  °F | °C
As of 5:52 PM on Saturday 22 Nov 2014 (Local Time) from KEST Reporting Station
Haze Haze  
Wind Chill: 28°   Ceiling: Unl
Heat Index: 37°   Visibility: 3mi
Dew Point: 36°   Wind: 16mph
Humidity: 96%   Direction: 180°S
Pressure: 29.57"   Gusts: NA
Location:  43.4°N, 94.48°W
Report Text: KEST 222352Z AUTO 18014KT 3SM BR CLR 03/02 A2957 RMK AO2 SLP022 T00280022 10039 20011 56022
Loading
Personal Weather Stations






























Interactive Weather Map New forecast layout! Learn more

10-Day Weather Forecast

Advertisements
Track Severe Weather on mobile